Terminal Aerodrome Forecast
Issued by NWS Boston, MA

Home | Current Version | Previous Version | Text Only | Print | Product List | Glossary On
Versions: 1 2 3 4 5 6 7 8 9 10 11 12 13 14 15
000
FTUS41 KBOX 010526
TAFORH
TAF
KORH 010526Z 0106/0206 23008KT P6SM BKN130
     FM011400 17006KT P6SM OVC060
     FM011500 17006KT P6SM -RA OVC060
     FM020000 13006KT P6SM VCSH OVC035
     FM020100 12005KT P6SM VCSH OVC020
     FM020300 10004KT P6SM VCSH OVC010=

USA.gov is the U.S. government's official web portal to all federal, state and local government web resources and services.